Marshall, MI

9:08 AM EST on December 26, 2014 (GMT -0500)
Brooks | Change Station
CLOSE
Current Station
Airport
Location: Marshall,
Elevation: 942 ft
Nearby Weather Stations

Elev 942 ft 42.25 °N, 84.96 °W | Updated 14 minutes ago

Clear
Clear
34 °F
Feels Like 28 °F
N
7
Wind Variable Wind from South

Today
High -- | Low -- °F
--% Chance of Precip.
Yesterday
High -- | Low -- °F
Precip. -- in
8:07 AM 5:13 PM
Waxing Crescent, 26% visible
Pressure 30.08 in
Visibility 10.0 miles
Clouds Clear
Windchill 28 °F
Dew Point 31 °F
Humidity 90%
Rainfall 0.00 in
Snow Depth Not available.
UV 0 out of 12
Pollen .10 out of 12
Air Quality Not available.
Flu Activity Not available.
METAR KRMY 261354Z AUTO 19006KT 10SM CLR 01/00 A3008 RMK AO2 T00101005

More Conditions Fewer Conditions

Pressure 30.08 in
Visibility 10.0 miles
Clouds Clear
Windchill 28 °F
Dew Point 31 °F
Humidity 90%
Rainfall 0.00 in
Snow Depth Not available.
UV 0 out of 12
Pollen .10 out of 12
Air Quality Not available.
Flu Activity Not available.
METAR KRMY 261354Z AUTO 19006KT 10SM CLR 01/00 A3008 RMK AO2 T00101005

More Conditions Fewer Conditions

10-Day Weather Forecast

Almanac

Astronomy

Dec. 26, 2014 Rise Set
Actual Time
Civil Twilight
Nautical Twilight
Astronomical Twilight
Moon
Length of Visible Light
Length of Day
Tomorrow will be .
, % of the Moon is Illuminated

Today's Extremes

State Highs State Lows

Community

WunderPhotos

Upload Photos

1,780,593 photos uploaded!

WunderBlogs® & News

Nearby

Air Quality

  Air Quality AQ Index Pollutant
Not available.

Snow Depth

Station Depth Elevation

Earthquake Activity

City Distance Mag. Time & Date
Minimum magnitude displayed is 2.5.

Coastal Water Temperatures

Place Temperature

Nearby Weather Stations